Rogerson, ID

4:49 AM MDT on August 31, 2015 (GMT -0600)
Joslin Field-Magic Valley Regional | | Change Station
CLOSE
Current Station
Airport
Location: Twin Falls,
Elevation: 4150 ft
Nearby Weather Stations

Elev 4150 ft 42.48 °N, 114.49 °W | Updated 56 minutes ago

Clear
Clear
59 °F
Feels Like 59 °F
N
17
Wind Variable Wind from SSW

Today
High -- | Low -- °F
--% Chance of Precip.
Yesterday
High -- | Low -- °F
Precip. -- in
7:02 AM 8:14 PM
Waning Gibbous, 96% visible
Pressure 29.94 in
Visibility 10.0 miles
Clouds Clear
Dew Point 35 °F
Humidity 41%
Rainfall 0.00 in
Snow Depth Not available.
UV 0 out of 12
Pollen 6.90 out of 12
Air Quality Not available.
Flu Activity Not available.
METAR KTWF 310953Z AUTO 21015KT 10SM CLR 15/02 A3009 RMK AO2 SLP138 T01500017
Pressure 29.94 in
Visibility 10.0 miles
Clouds Clear
Dew Point 35 °F
Humidity 41%
Rainfall 0.00 in
Snow Depth Not available.
UV 0 out of 12
Pollen 6.90 out of 12
Air Quality Not available.
Flu Activity Not available.
METAR KTWF 310953Z AUTO 21015KT 10SM CLR 15/02 A3009 RMK AO2 SLP138 T01500017

10-Day Weather Forecast

×

Almanac

Astronomy

Aug. 31, 2015 Rise Set
Actual Time
Civil Twilight
Nautical Twilight
Astronomical Twilight
Moon
Length of Visible Light
Length of Day
Tomorrow will be .
, % of the Moon is Illuminated

Today's Extremes

State Highs State Lows

Community

WunderPhotos

Upload Photos

1,851,227 photos uploaded!

WunderBlogs® & News

Nearby

Air Quality

  Air Quality AQ Index Pollutant
Not available.

Snow Depth

Station Depth Elevation

Earthquake Activity

City Distance Mag. Time & Date
Minimum magnitude displayed is 2.5.

Coastal Water Temperatures

Place Temperature

Stations

Nearby Weather Stations

Station Location Temp. Windchill Dew Point Humidity Wind Precip. Elev Updated Type